Dades meteomassalio
Diari Summary for Agost 17, 2017 Units:  English    Metric   Both
« Previous Day
Next Day »
Diari Semanal Mensual Anual Personalitzat
  Maxima: Minima: Mijana:
Temperatura: TemperatureC °F 16.8 °F 27.3 °F
Rosada: DewpointC °F 5.3 °F 11.8 °F
Humitat: Humidity % 19 % 41 %
Velocitat del vent: WindSpeedKMH mph 0.0 mph 4.6 mph
Racha vent: WindSpeedGustKMH mph - -
Vent:- - SE
Pressio: PressurehPa in 1014.4 in -
Pluja: 0.0 in    
Historical Graphs
 
 
Tabular Data for Agost 17, 2017
Time Temperature Dew Point Pressure Wind Wind Speed Wind Gust Humidity Rainfall Rate (Hourly) solar Conditions
TemperatureC °F DewpointC °F PressurehPa in Calm     Humidity % HourlyPrecipMM in SolarRadiationWatts/m^2 W/m2 Conditions
00:01 27.8 °F 14.4 °F 1017.8 in NW 12.9 mph 12.9 mph 44 % 0.0 in 0.0 W/m2 CLR
00:06 27.8 °F 14.4 °F 1017.8 in NW 18.5 mph 18.5 mph 44 % 0.0 in 0.0 W/m2 CLR
00:11 27.7 °F 14.3 °F 1017.8 in Calm     44 % 0.0 in 0.0 W/m2 CLR
00:16 27.6 °F 14.3 °F 1018.2 in Calm     44 % 0.0 in 0.0 W/m2 CLR
00:21 27.4 °F 14.4 °F 1018.2 in Calm     45 % 0.0 in 0.0 W/m2 CLR
00:26 27.1 °F 14.2 °F 1018.2 in Calm     45 % 0.0 in 0.0 W/m2 CLR
00:27 27.1 °F 14.2 °F 1018.2 in Calm     45 % 0.0 in 0.0 W/m2 CLR
00:32 26.8 °F 14.2 °F 1018.2 in Calm     46 % 0.0 in 0.0 W/m2 CLR
00:40 26.3 °F 14.4 °F 1018.2 in Calm     48 % 0.0 in 0.0 W/m2 CLR
00:46 26.0 °F 14.1 °F 1018.5 in Calm     48 % 0.0 in 0.0 W/m2 CLR
01:14 25.5 °F 14.0 °F 1018.5 in West 6.4 mph   49 % 0.0 in 0.0 W/m2 CLR
01:30 25.0 °F 14.4 °F 1018.5 in Calm     52 % 0.0 in 0.0 W/m2 CLR
01:41 24.5 °F 15.2 °F 1018.5 in Calm     56 % 0.0 in 0.0 W/m2 CLR
01:51 24.0 °F 14.4 °F 1018.5 in Calm     55 % 0.0 in 0.0 W/m2 CLR
01:56 23.7 °F 14.1 °F 1018.5 in Calm     55 % 0.0 in 0.0 W/m2 CLR
02:02 23.5 °F 13.4 °F 1018.5 in Calm     53 % 0.0 in 0.0 W/m2 CLR
02:07 23.5 °F 13.1 °F 1018.5 in Calm     52 % 0.0 in 0.0 W/m2 CLR
02:12 23.4 °F 13.9 °F 1018.5 in Calm     55 % 0.0 in 0.0 W/m2 CLR
02:17 23.3 °F 14.1 °F 1018.5 in Calm     56 % 0.0 in 0.0 W/m2 CLR
02:22 23.2 °F 14.2 °F 1018.5 in Calm     57 % 0.0 in 0.0 W/m2 CLR
02:27 23.1 °F 14.1 °F 1018.5 in Calm     57 % 0.0 in 0.0 W/m2 CLR
02:32 22.9 °F 13.4 °F 1018.5 in Calm     55 % 0.0 in 0.0 W/m2 CLR
02:37 22.7 °F 13.8 °F 1018.5 in Calm     57 % 0.0 in 0.0 W/m2 CLR
02:42 22.6 °F 13.7 °F 1018.5 in Calm     57 % 0.0 in 0.0 W/m2 CLR
02:47 22.6 °F 13.3 °F 1018.5 in Calm     56 % 0.0 in 0.0 W/m2 CLR
02:52 22.5 °F 13.3 °F 1018.5 in Calm     56 % 0.0 in 0.0 W/m2 CLR
02:57 22.4 °F 12.7 °F 1018.5 in Calm     54 % 0.0 in 0.0 W/m2 CLR
03:02 22.4 °F 13.2 °F 1018.5 in Calm     56 % 0.0 in 0.0 W/m2 CLR
03:07 22.2 °F 13.3 °F 1018.5 in Calm     57 % 0.0 in 0.0 W/m2 CLR
03:12 22.1 °F 13.4 °F 1018.5 in Calm     58 % 0.0 in 0.0 W/m2 CLR
03:17 21.8 °F 13.7 °F 1018.5 in Calm     60 % 0.0 in 0.0 W/m2 CLR
03:22 21.7 °F 13.1 °F 1018.5 in Calm     58 % 0.0 in 0.0 W/m2 CLR
03:27 21.6 °F 12.2 °F 1018.5 in Calm     55 % 0.0 in 0.0 W/m2 CLR
03:32 21.6 °F 11.9 °F 1018.5 in Calm     54 % 0.0 in 0.0 W/m2 CLR
03:37 21.7 °F 11.1 °F 1018.5 in Calm     51 % 0.0 in 0.0 W/m2 CLR
03:42 21.8 °F 12.3 °F 1018.5 in Calm     55 % 0.0 in 0.0 W/m2 CLR
03:47 21.7 °F 12.2 °F 1018.5 in Calm     55 % 0.0 in 0.0 W/m2 CLR
03:52 21.5 °F 11.8 °F 1018.5 in Calm     54 % 0.0 in 0.0 W/m2 CLR
03:57 21.4 °F 11.1 °F 1018.5 in Calm     52 % 0.0 in 0.0 W/m2 CLR
04:02 21.3 °F 10.1 °F 1018.5 in Calm     49 % 0.0 in 0.0 W/m2 CLR
04:07 21.3 °F 10.2 °F 1018.8 in Calm     49 % 0.0 in 0.0 W/m2 CLR
04:12 21.3 °F 11.9 °F 1018.5 in Calm     55 % 0.0 in 0.0 W/m2 CLR
04:17 20.9 °F 11.6 °F 1018.5 in Calm     55 % 0.0 in 0.0 W/m2 CLR
04:22 20.6 °F 11.2 °F 1018.8 in Calm     55 % 0.0 in 0.0 W/m2 CLR
04:27 20.5 °F 11.4 °F 1018.8 in Calm     56 % 0.0 in 0.0 W/m2 CLR
04:32 20.3 °F 11.3 °F 1018.8 in Calm     56 % 0.0 in 0.0 W/m2 CLR
04:37 20.2 °F 11.4 °F 1018.8 in Calm     57 % 0.0 in 0.0 W/m2 CLR
04:42 20.1 °F 11.3 °F 1018.8 in Calm     57 % 0.0 in 0.0 W/m2 CLR
04:47 20.1 °F 11.3 °F 1018.8 in Calm     57 % 0.0 in 0.0 W/m2 CLR
04:52 19.9 °F 11.4 °F 1018.8 in Calm     58 % 0.0 in 0.0 W/m2 CLR
04:57 19.7 °F 11.2 °F 1018.8 in Calm     58 % 0.0 in 0.0 W/m2 CLR
05:02 19.6 °F 11.1 °F 1018.8 in Calm     58 % 0.0 in 0.0 W/m2 CLR
05:07 19.4 °F 10.7 °F 1018.8 in Calm     57 % 0.0 in 0.0 W/m2 CLR
05:13 19.4 °F 10.7 °F 1018.8 in Calm     57 % 0.0 in 0.0 W/m2 CLR
05:18 19.3 °F 10.6 °F 1018.8 in Calm     57 % 0.0 in 0.0 W/m2 CLR
05:22 19.2 °F 10.2 °F 1018.8 in Calm     56 % 0.0 in 0.0 W/m2 CLR
05:23 19.2 °F 10.2 °F 1018.8 in Calm     56 % 0.0 in 0.0 W/m2 CLR
05:27 19.2 °F 9.9 °F 1018.8 in Calm     55 % 0.0 in 0.0 W/m2 CLR
05:32 19.1 °F 10.1 °F 1018.8 in Calm     56 % 0.0 in 0.0 W/m2 CLR
05:37 19.1 °F 10.3 °F 1018.8 in Calm     57 % 0.0 in 0.0 W/m2 CLR
05:42 18.9 °F 9.9 °F 1018.8 in Calm     56 % 0.0 in 0.0 W/m2 CLR
05:47 18.7 °F 10.0 °F 1018.8 in Calm     57 % 0.0 in 0.0 W/m2 CLR
05:52 18.6 °F 9.9 °F 1018.8 in Calm     57 % 0.0 in 0.0 W/m2 CLR
05:57 18.5 °F 9.8 °F 1018.8 in Calm     57 % 0.0 in 0.0 W/m2 CLR
05:58 18.5 °F 9.8 °F 1018.8 in Calm     57 % 0.0 in 0.0 W/m2 CLR
06:03 18.4 °F 9.8 °F 1018.8 in Calm     57 % 0.0 in 0.0 W/m2 CLR
06:08 18.5 °F 9.8 °F 1018.8 in Calm     57 % 0.0 in 0.0 W/m2 CLR
06:13 18.5 °F 9.8 °F 1018.8 in Calm     57 % 0.0 in 0.0 W/m2 CLR
06:18 18.3 °F 9.7 °F 1018.8 in Calm     57 % 0.0 in 0.0 W/m2 CLR
06:23 18.1 °F 9.7 °F 1018.8 in Calm     58 % 0.0 in 0.0 W/m2 CLR
06:28 17.9 °F 9.8 °F 1019.2 in Calm     59 % 0.0 in 0.0 W/m2 CLR
06:33 17.8 °F 10.2 °F 1019.2 in Calm     61 % 0.0 in 0.0 W/m2 CLR
06:38 17.6 °F 9.7 °F 1019.2 in Calm     60 % 0.0 in 0.0 W/m2 CLR
06:43 17.6 °F 9.7 °F 1019.2 in SW 5.6 mph 6.0 mph 60 % 0.0 in 0.0 W/m2 CLR
06:48 17.6 °F 9.7 °F 1019.2 in Calm     60 % 0.0 in 0.0 W/m2 CLR
06:53 17.5 °F 9.7 °F 1019.2 in Calm     60 % 0.0 in 0.0 W/m2 CLR
06:58 17.3 °F 9.5 °F 1019.2 in Calm     60 % 0.0 in 0.0 W/m2 CLR
07:03 17.2 °F 9.6 °F 1019.2 in Calm     61 % 0.0 in 0.0 W/m2 OVC
07:08 17.0 °F 9.4 °F 1019.2 in Calm     61 % 0.0 in 0.0 W/m2 OVC
07:13 16.9 °F 9.4 °F 1019.2 in Calm     61 % 0.0 in 5.0 W/m2 OVC
07:18 16.9 °F 9.3 °F 1019.2 in Calm     61 % 0.0 in 9.0 W/m2 BKN
07:23 16.9 °F 9.3 °F 1019.2 in Calm     61 % 0.0 in 12.0 W/m2 BKN
07:28 16.9 °F 9.4 °F 1019.2 in Calm     61 % 0.0 in 18.0 W/m2 BKN
07:33 16.9 °F 9.4 °F 1019.2 in Calm     61 % 0.0 in 21.0 W/m2 BKN
07:38 16.9 °F 9.3 °F 1019.2 in Calm     61 % 0.0 in 23.0 W/m2 BKN
07:43 16.8 °F 9.3 °F 1019.5 in SW 5.6 mph 5.6 mph 61 % 0.0 in 28.0 W/m2 BKN
07:48 16.8 °F 9.3 °F 1019.2 in Calm     61 % 0.0 in 33.0 W/m2 BKN
07:53 16.9 °F 9.3 °F 1019.5 in Calm     61 % 0.0 in 39.0 W/m2 BKN
07:58 17.1 °F 9.5 °F 1019.5 in Calm     61 % 0.0 in 54.0 W/m2 SCT
08:03 17.3 °F 9.4 °F 1019.2 in Calm     60 % 0.0 in 58.0 W/m2 SCT
08:08 17.5 °F 9.7 °F 1019.2 in Calm     60 % 0.0 in 74.0 W/m2 FEW
08:13 17.8 °F 9.7 °F 1019.5 in Calm     59 % 0.0 in 93.0 W/m2 FEW
08:18 18.0 °F 9.9 °F 1019.5 in Calm     59 % 0.0 in 111.0 W/m2 CLR
08:23 18.1 °F 9.7 °F 1019.5 in Calm     58 % 0.0 in 125.0 W/m2 CLR
08:28 18.4 °F 10.0 °F 1019.5 in Calm     58 % 0.0 in 137.0 W/m2 CLR
08:33 18.7 °F 10.0 °F 1019.5 in Calm     57 % 0.0 in 156.0 W/m2 CLR
08:38 19.1 °F 10.3 °F 1019.5 in Calm     57 % 0.0 in 178.0 W/m2 CLR
08:43 19.6 °F 10.3 °F 1019.5 in Calm     55 % 0.0 in 193.0 W/m2 CLR
08:48 20.1 °F 10.5 °F 1019.5 in Calm     54 % 0.0 in 211.0 W/m2 CLR
08:53 20.7 °F 10.5 °F 1019.5 in Calm     52 % 0.0 in 227.0 W/m2 CLR
08:58 21.1 °F 11.4 °F 1019.5 in Calm     54 % 0.0 in 241.0 W/m2 CLR
09:03 21.4 °F 12.2 °F 1019.5 in Calm     56 % 0.0 in 255.0 W/m2 CLR
09:08 21.7 °F 12.2 °F 1019.5 in Calm     55 % 0.0 in 258.0 W/m2 CLR
09:13 21.9 °F 12.7 °F 1019.5 in Calm     56 % 0.0 in 287.0 W/m2 CLR
09:18 22.2 °F 12.4 °F 1019.5 in Calm     54 % 0.0 in 283.0 W/m2 CLR
09:23 22.7 °F 12.3 °F 1019.5 in Calm     52 % 0.0 in 97.0 W/m2 CLR
09:28 23.2 °F 12.5 °F 1019.5 in Calm     51 % 0.0 in 338.0 W/m2 CLR
09:33 23.5 °F 12.2 °F 1019.2 in Calm     49 % 0.0 in 353.0 W/m2 CLR
09:38 23.7 °F 12.3 °F 1019.5 in Calm     49 % 0.0 in 367.0 W/m2 CLR
09:43 23.9 °F 11.9 °F 1019.5 in Calm     47 % 0.0 in 383.0 W/m2 CLR
09:48 24.2 °F 11.5 °F 1019.5 in Calm     45 % 0.0 in 403.0 W/m2 CLR
09:53 24.6 °F 10.4 °F 1019.2 in Calm     41 % 0.0 in 417.0 W/m2 CLR
09:58 25.1 °F 11.3 °F 1019.5 in Calm     42 % 0.0 in 431.0 W/m2 CLR
10:03 25.5 °F 11.3 °F 1019.5 in Calm     41 % 0.0 in 446.0 W/m2 CLR
10:08 25.8 °F 10.8 °F 1019.5 in Calm     39 % 0.0 in 462.0 W/m2 CLR
10:13 26.2 °F 7.7 °F 1019.5 in WNW 7.4 mph 7.4 mph 31 % 0.0 in 480.0 W/m2 CLR
10:18 26.3 °F 6.9 °F 1019.5 in WNW 13.0 mph 13.0 mph 29 % 0.0 in 492.0 W/m2 CLR
10:23 26.5 °F 6.5 °F 1019.2 in WNW 13.0 mph 13.0 mph 28 % 0.0 in 506.0 W/m2 CLR
10:28 26.6 °F 6.6 °F 1019.5 in WNW 13.0 mph 13.0 mph 28 % 0.0 in 524.0 W/m2 CLR
10:33 26.8 °F 6.8 °F 1019.5 in NW 11.1 mph 11.1 mph 28 % 0.0 in 536.0 W/m2 CLR
10:38 26.8 °F 6.8 °F 1019.5 in NNW 7.4 mph 7.4 mph 28 % 0.0 in 550.0 W/m2 CLR
10:39 26.8 °F 6.8 °F 1019.5 in NW 7.4 mph 7.4 mph 28 % 0.0 in 550.0 W/m2 CLR
10:44 27.1 °F 7.0 °F 1019.5 in WNW 8.0 mph 8.0 mph 28 % 0.0 in 566.0 W/m2 CLR
10:49 27.2 °F 7.1 °F 1019.5 in WNW 1.9 mph 1.9 mph 28 % 0.0 in 577.0 W/m2 CLR
10:54 27.4 °F 6.7 °F 1019.2 in West 9.7 mph 9.7 mph 27 % 0.0 in 592.0 W/m2 CLR
10:55 27.4 °F 6.2 °F 1019.2 in WSW 9.3 mph 9.3 mph 26 % 0.0 in 598.0 W/m2 CLR
11:00 27.5 °F 6.8 °F 1019.2 in NW 7.4 mph 7.4 mph 27 % 0.0 in 612.0 W/m2 CLR
11:05 27.7 °F 5.9 °F 1019.2 in WNW 7.4 mph 7.4 mph 25 % 0.0 in 624.0 W/m2 CLR
11:10 27.8 °F 6.6 °F 1019.2 in West 9.7 mph 9.7 mph 26 % 0.0 in 635.0 W/m2 CLR
11:15 28.2 °F 6.3 °F 1019.2 in SSE 1.9 mph 1.9 mph 25 % 0.0 in 650.0 W/m2 CLR
11:20 28.6 °F 6.6 °F 1019.2 in NW 6.4 mph 6.4 mph 25 % 0.0 in 661.0 W/m2 CLR
11:25 28.7 °F 6.1 °F 1019.2 in West 9.3 mph 9.3 mph 24 % 0.0 in 671.0 W/m2 CLR
11:30 28.7 °F 5.6 °F 1019.2 in South 7.4 mph 7.4 mph 23 % 0.0 in 682.0 W/m2 CLR
11:35 29.0 °F 5.8 °F 1019.2 in Calm     23 % 0.0 in 694.0 W/m2 CLR
11:36 29.0 °F 5.8 °F 1019.2 in Calm     23 % 0.0 in 696.0 W/m2 CLR
11:41 29.3 °F 5.3 °F 1018.8 in South 7.4 mph   22 % 0.0 in 708.0 W/m2 CLR
11:46 29.4 °F 5.4 °F 1018.8 in SW 5.6 mph 5.6 mph 22 % 0.0 in 717.0 W/m2 CLR
11:51 29.6 °F 5.6 °F 1018.8 in West 7.4 mph 7.4 mph 22 % 0.0 in 728.0 W/m2 CLR
11:56 29.7 °F 5.7 °F 1018.8 in NW 5.6 mph 5.6 mph 22 % 0.0 in 737.0 W/m2 CLR
12:01 29.7 °F 5.7 °F 1018.8 in WNW 6.4 mph 6.4 mph 22 % 0.0 in 744.0 W/m2 CLR
12:06 29.7 °F 5.7 °F 1018.8 in Calm     22 % 0.0 in 758.0 W/m2 CLR
12:11 30.1 °F 5.4 °F 1018.5 in Calm     21 % 0.0 in 765.0 W/m2 CLR
12:16 30.4 °F 5.7 °F 1018.5 in SSW 3.7 mph 3.7 mph 21 % 0.0 in 773.0 W/m2 CLR
12:21 30.6 °F 5.8 °F 1018.5 in Calm     21 % 0.0 in 777.0 W/m2 CLR
12:26 31.3 °F 6.3 °F 1018.5 in NNE 7.4 mph 7.4 mph 21 % 0.0 in 788.0 W/m2 CLR
12:31 31.6 °F 6.6 °F 1018.5 in Calm     21 % 0.0 in 796.0 W/m2 CLR
12:36 31.4 °F 5.8 °F 1018.5 in SW 5.6 mph 5.6 mph 20 % 0.0 in 803.0 W/m2 CLR
12:41 31.5 °F 6.5 °F 1018.5 in ESE 1.9 mph 1.9 mph 21 % 0.0 in 810.0 W/m2 CLR
12:46 31.8 °F 6.8 °F 1018.5 in ENE 8.0 mph 8.0 mph 21 % 0.0 in 817.0 W/m2 CLR
12:51 32.0 °F 6.2 °F 1018.2 in Calm     20 % 0.0 in 819.0 W/m2 CLR
12:56 32.2 °F 6.4 °F 1018.2 in ENE 9.3 mph 9.3 mph 20 % 0.0 in 824.0 W/m2 CLR
13:01 32.6 °F 6.7 °F 1018.2 in East 5.6 mph 5.6 mph 20 % 0.0 in 831.0 W/m2 CLR
13:06 32.7 °F 6.1 °F 1018.2 in East 1.9 mph 1.9 mph 19 % 0.0 in 838.0 W/m2 CLR
13:11 32.7 °F 6.1 °F 1018.2 in East 3.7 mph 3.7 mph 19 % 0.0 in 842.0 W/m2 CLR
13:16 32.5 °F 6.6 °F 1017.8 in ENE 11.1 mph 11.1 mph 20 % 0.0 in 846.0 W/m2 CLR
13:21 32.4 °F 6.6 °F 1017.8 in East 5.6 mph   20 % 0.0 in 849.0 W/m2 CLR
13:26 32.3 °F 6.5 °F 1017.8 in Calm     20 % 0.0 in 853.0 W/m2 CLR
13:31 32.3 °F 7.2 °F 1017.8 in Calm     21 % 0.0 in 853.0 W/m2 CLR
13:36 32.7 °F 6.8 °F 1017.8 in ESE 5.6 mph 5.6 mph 20 % 0.0 in 858.0 W/m2 CLR
13:41 33.1 °F 7.1 °F 1017.8 in ENE 5.6 mph 5.6 mph 20 % 0.0 in 858.0 W/m2 CLR
13:46 32.9 °F 7.0 °F 1017.5 in ENE 5.6 mph   20 % 0.0 in 861.0 W/m2 CLR
13:51 33.1 °F 7.1 °F 1017.5 in Calm     20 % 0.0 in 865.0 W/m2 CLR
13:56 33.1 °F 7.1 °F 1017.5 in Calm     20 % 0.0 in 865.0 W/m2 CLR
14:01 33.4 °F 7.4 °F 1017.5 in Calm     20 % 0.0 in 867.0 W/m2 CLR
14:06 33.8 °F 7.7 °F 1017.5 in East 5.6 mph 5.6 mph 20 % 0.0 in 868.0 W/m2 CLR
14:11 33.8 °F 7.7 °F 1017.5 in NE 1.9 mph   20 % 0.0 in 867.0 W/m2 CLR
14:16 34.0 °F 7.9 °F 1017.2 in NNE 6.4 mph 6.4 mph 20 % 0.0 in 867.0 W/m2 CLR
14:21 34.1 °F 7.9 °F 1017.2 in NE 9.7 mph 9.7 mph 20 % 0.0 in 865.0 W/m2 CLR
14:27 34.1 °F 8.7 °F 1017.2 in ENE 9.7 mph 9.7 mph 21 % 0.0 in 861.0 W/m2 CLR
14:32 34.4 °F 8.9 °F 1017.2 in Calm     21 % 0.0 in 863.0 W/m2 CLR
14:37 34.7 °F 9.1 °F 1016.8 in NE 9.3 mph 9.3 mph 21 % 0.0 in 858.0 W/m2 CLR
14:42 34.8 °F 8.5 °F 1016.8 in NE 9.3 mph 9.3 mph 20 % 0.0 in 856.0 W/m2 CLR
14:47 34.6 °F 9.1 °F 1016.8 in East 11.3 mph 11.3 mph 21 % 0.0 in 851.0 W/m2 CLR
14:52 34.4 °F 8.9 °F 1016.8 in NNE 7.4 mph 7.4 mph 21 % 0.0 in 846.0 W/m2 CLR
14:57 34.6 °F 9.1 °F 1016.5 in Calm     21 % 0.0 in 840.0 W/m2 CLR
15:02 34.8 °F 9.3 °F 1016.5 in Calm     21 % 0.0 in 837.0 W/m2 CLR
15:07 35.2 °F 9.6 °F 1016.5 in NE 8.0 mph 8.0 mph 21 % 0.0 in 831.0 W/m2 CLR
15:12 35.1 °F 9.4 °F 1016.1 in NE 7.4 mph 7.4 mph 21 % 0.0 in 831.0 W/m2 CLR
15:17 35.2 °F 9.6 °F 1016.1 in NNW 5.6 mph 5.6 mph 21 % 0.0 in 821.0 W/m2 CLR
15:22 35.3 °F 9.7 °F 1016.1 in Calm     21 % 0.0 in 817.0 W/m2 CLR
15:27 35.5 °F 9.8 °F 1016.1 in Calm     21 % 0.0 in 812.0 W/m2 CLR
15:32 36.1 °F 10.3 °F 1016.1 in NE 16.1 mph 16.1 mph 21 % 0.0 in 802.0 W/m2 CLR
15:37 36.2 °F 10.4 °F 1016.1 in Calm     21 % 0.0 in 800.0 W/m2 CLR
15:42 36.3 °F 9.8 °F 1015.8 in Calm   1.4 mph 20 % 0.0 in 795.0 W/m2 CLR
15:43 36.3 °F 9.8 °F 1015.8 in ENE 8.0 mph 8.0 mph 20 % 0.0 in 795.0 W/m2 CLR
15:48 36.3 °F 9.8 °F 1015.8 in NE 1.9 mph   20 % 0.0 in 782.0 W/m2 CLR
15:53 36.2 °F 9.7 °F 1015.8 in North 5.6 mph   20 % 0.0 in 777.0 W/m2 CLR
15:58 36.2 °F 9.7 °F 1015.8 in NE 7.4 mph 7.4 mph 20 % 0.0 in 765.0 W/m2 CLR
16:03 36.2 °F 10.4 °F 1015.5 in Calm     21 % 0.0 in 763.0 W/m2 CLR
16:08 36.5 °F 10.7 °F 1015.5 in NE 5.6 mph 5.6 mph 21 % 0.0 in 752.0 W/m2 CLR
16:13 36.7 °F 10.8 °F 1015.5 in SSE 25.9 mph 25.9 mph 21 % 0.0 in 740.0 W/m2 CLR
16:18 36.4 °F 10.6 °F 1015.5 in SE 13.0 mph 13.0 mph 21 % 0.0 in 733.0 W/m2 CLR
16:23 35.9 °F 10.9 °F 1015.5 in ENE 7.4 mph 7.4 mph 22 % 0.0 in 721.0 W/m2 CLR
16:28 35.9 °F 10.8 °F 1015.1 in SE 7.4 mph 7.4 mph 22 % 0.0 in 710.0 W/m2 CLR
16:33 35.9 °F 10.8 °F 1015.1 in SE 13.0 mph 13.0 mph 22 % 0.0 in 698.0 W/m2 CLR
16:38 35.9 °F 10.9 °F 1015.1 in Calm     22 % 0.0 in 687.0 W/m2 CLR
16:43 36.2 °F 11.1 °F 1015.1 in ENE 18.5 mph 18.5 mph 22 % 0.0 in 673.0 W/m2 CLR
16:48 36.3 °F 11.2 °F 1015.1 in Calm     22 % 0.0 in 664.0 W/m2 CLR
16:53 36.4 °F 11.9 °F 1015.1 in SE 14.8 mph 14.8 mph 23 % 0.0 in 654.0 W/m2 CLR
16:58 36.0 °F 11.6 °F 1015.1 in East 16.7 mph 16.7 mph 23 % 0.0 in 643.0 W/m2 CLR
17:03 35.7 °F 12.0 °F 1014.8 in NNE 3.7 mph   24 % 0.0 in 629.0 W/m2 CLR
17:08 35.8 °F 11.4 °F 1014.8 in ENE 5.6 mph 5.6 mph 23 % 0.0 in 613.0 W/m2 CLR
17:13 36.0 °F 11.6 °F 1014.8 in ENE 11.1 mph 11.1 mph 23 % 0.0 in 599.0 W/m2 CLR
17:18 35.7 °F 12.7 °F 1014.8 in ESE 14.8 mph 14.8 mph 25 % 0.0 in 585.0 W/m2 CLR
17:23 35.7 °F 12.6 °F 1014.8 in ESE 18.5 mph 18.5 mph 25 % 0.0 in 571.0 W/m2 CLR
17:28 35.4 °F 13.0 °F 1014.8 in ESE 18.5 mph 18.5 mph 26 % 0.0 in 554.0 W/m2 CLR
17:33 35.4 °F 12.9 °F 1014.8 in East 9.3 mph 9.3 mph 26 % 0.0 in 541.0 W/m2 CLR
17:38 35.4 °F 12.9 °F 1014.8 in ESE 14.8 mph 14.8 mph 26 % 0.0 in 529.0 W/m2 CLR
17:43 35.4 °F 13.6 °F 1014.8 in East 7.4 mph 7.4 mph 27 % 0.0 in 519.0 W/m2 CLR
17:48 35.3 °F 13.4 °F 1014.8 in East 9.3 mph 9.3 mph 27 % 0.0 in 503.0 W/m2 CLR
17:53 35.0 °F 13.8 °F 1014.4 in SSE 6.4 mph 6.4 mph 28 % 0.0 in 483.0 W/m2 CLR
17:58 35.0 °F 14.3 °F 1014.4 in East 20.4 mph 20.4 mph 29 % 0.0 in 468.0 W/m2 CLR
18:03 34.9 °F 14.7 °F 1014.4 in ESE 18.5 mph 18.5 mph 30 % 0.0 in 454.0 W/m2 CLR
18:08 34.6 °F 14.5 °F 1014.4 in ESE 14.5 mph 14.5 mph 30 % 0.0 in 439.0 W/m2 CLR
18:13 34.7 °F 14.6 °F 1014.4 in ESE 13.0 mph 13.0 mph 30 % 0.0 in 422.0 W/m2 CLR
18:18 34.7 °F 15.1 °F 1014.4 in ESE 13.0 mph 13.0 mph 31 % 0.0 in 406.0 W/m2 CLR
18:23 34.7 °F 15.1 °F 1014.4 in ESE 14.5 mph 14.5 mph 31 % 0.0 in 390.0 W/m2 CLR
18:28 34.4 °F 15.4 °F 1014.4 in East 16.7 mph 16.7 mph 32 % 0.0 in 378.0 W/m2 CLR
18:33 34.3 °F 15.7 °F 1014.4 in East 16.7 mph 16.7 mph 33 % 0.0 in 359.0 W/m2 CLR
18:38 34.2 °F 16.1 °F 1014.4 in East 16.1 mph 16.1 mph 34 % 0.0 in 343.0 W/m2 CLR
18:43 34.2 °F 16.1 °F 1014.4 in East 14.8 mph 14.8 mph 34 % 0.0 in 329.0 W/m2 CLR
18:48 34.0 °F 16.4 °F 1014.4 in East 11.3 mph 11.3 mph 35 % 0.0 in 313.0 W/m2 CLR
18:53 33.9 °F 16.3 °F 1014.4 in East 16.7 mph 16.7 mph 35 % 0.0 in 294.0 W/m2 CLR
18:58 33.9 °F 16.3 °F 1014.4 in East 18.5 mph 18.5 mph 35 % 0.0 in 279.0 W/m2 CLR
19:03 33.8 °F 16.7 °F 1014.4 in East 11.1 mph 11.1 mph 36 % 0.0 in 265.0 W/m2 CLR
19:08 33.7 °F 16.9 °F 1014.4 in East 11.1 mph 11.1 mph 37 % 0.0 in 251.0 W/m2 CLR
19:13 33.7 °F 16.9 °F 1014.4 in East 16.7 mph 16.7 mph 37 % 0.0 in 236.0 W/m2 CLR
19:18 33.4 °F 17.2 °F 1014.4 in ESE 14.8 mph 14.8 mph 38 % 0.0 in 213.0 W/m2 CLR
19:23 33.4 °F 16.7 °F 1014.4 in SE 13.0 mph 13.0 mph 37 % 0.0 in 195.0 W/m2 CLR
19:28 33.4 °F 17.1 °F 1014.4 in ESE 6.4 mph 6.4 mph 38 % 0.0 in 179.0 W/m2 CLR
19:33 33.2 °F 17.4 °F 1014.4 in ENE 11.1 mph 11.1 mph 39 % 0.0 in 163.0 W/m2 CLR
19:38 33.0 °F 17.2 °F 1014.4 in East 11.1 mph 11.1 mph 39 % 0.0 in 144.0 W/m2 CLR
19:43 32.8 °F 17.4 °F 1014.4 in East 9.3 mph 9.3 mph 40 % 0.0 in 127.0 W/m2 CLR
19:48 32.6 °F 17.6 °F 1014.4 in East 18.5 mph 18.5 mph 41 % 0.0 in 111.0 W/m2 CLR
19:53 32.2 °F 17.7 °F 1014.4 in ESE 11.3 mph 11.3 mph 42 % 0.0 in 98.0 W/m2 CLR
19:58 32.0 °F 17.8 °F 1014.4 in East 9.3 mph 9.3 mph 43 % 0.0 in 84.0 W/m2 FEW
20:03 31.8 °F 18.0 °F 1014.4 in ESE 13.0 mph 13.0 mph 44 % 0.0 in 70.0 W/m2 FEW
20:08 31.6 °F 17.9 °F 1014.4 in East 11.1 mph 11.1 mph 44 % 0.0 in 58.0 W/m2 SCT
20:14 31.6 °F 17.8 °F 1014.4 in ESE 7.4 mph 7.4 mph 44 % 0.0 in 44.0 W/m2 SCT
20:19 31.4 °F 17.7 °F 1014.8 in ESE 8.0 mph 8.0 mph 44 % 0.0 in 35.0 W/m2 BKN
20:24 31.3 °F 17.6 °F 1014.8 in ESE 13.0 mph 13.0 mph 44 % 0.0 in 28.0 W/m2 BKN
20:29 31.2 °F 17.5 °F 1014.8 in ESE 13.0 mph 13.0 mph 44 % 0.0 in 23.0 W/m2 BKN
20:34 31.2 °F 17.4 °F 1014.8 in SE 13.0 mph 13.0 mph 44 % 0.0 in 18.0 W/m2 BKN
20:39 31.1 °F 17.4 °F 1014.8 in SE 11.3 mph 11.3 mph 44 % 0.0 in 12.0 W/m2 BKN
20:44 31.0 °F 17.3 °F 1014.8 in SSE 9.3 mph 9.3 mph 44 % 0.0 in 9.0 W/m2 BKN
20:49 30.9 °F 17.2 °F 1014.8 in ESE 9.3 mph 9.3 mph 44 % 0.0 in 5.0 W/m2 BKN
20:54 30.8 °F 17.1 °F 1014.8 in SSE 6.4 mph 6.4 mph 44 % 0.0 in 0.0 W/m2 OVC
20:59 30.7 °F 17.4 °F 1014.8 in SSE 11.3 mph 11.3 mph 45 % 0.0 in 0.0 W/m2 OVC
21:04 30.5 °F 17.2 °F 1014.8 in SE 13.0 mph 13.0 mph 45 % 0.0 in 0.0 W/m2 CLR
21:09 30.4 °F 17.1 °F 1015.1 in SE 5.6 mph 5.6 mph 45 % 0.0 in 0.0 W/m2 CLR
21:14 30.2 °F 17.3 °F 1015.1 in SE 11.1 mph 11.1 mph 46 % 0.0 in 0.0 W/m2 CLR
21:19 30.1 °F 17.5 °F 1015.1 in SSE 11.1 mph 11.1 mph 47 % 0.0 in 0.0 W/m2 CLR
21:24 29.8 °F 17.3 °F 1015.1 in SSE 11.1 mph 11.1 mph 47 % 0.0 in 0.0 W/m2 CLR
21:29 29.7 °F 17.5 °F 1015.1 in SSE 7.4 mph 7.4 mph 48 % 0.0 in 0.0 W/m2 CLR
21:34 29.5 °F 17.3 °F 1015.1 in SE 11.1 mph 11.1 mph 48 % 0.0 in 0.0 W/m2 CLR
21:39 29.3 °F 17.5 °F 1015.1 in South 7.4 mph 7.4 mph 49 % 0.0 in 0.0 W/m2 CLR
21:44 29.2 °F 17.4 °F 1015.1 in SE 9.7 mph 9.7 mph 49 % 0.0 in 0.0 W/m2 CLR
21:49 29.1 °F 17.3 °F 1015.1 in SE 7.4 mph 7.4 mph 49 % 0.0 in 0.0 W/m2 CLR
21:54 28.9 °F 17.4 °F 1015.5 in SSE 9.3 mph 9.3 mph 50 % 0.0 in 0.0 W/m2 CLR
21:59 28.8 °F 17.3 °F 1015.5 in SSE 9.3 mph 9.3 mph 50 % 0.0 in 0.0 W/m2 CLR
22:04 28.7 °F 17.6 °F 1015.5 in SE 11.3 mph 11.3 mph 51 % 0.0 in 0.0 W/m2 CLR
22:09 28.6 °F 17.4 °F 1015.5 in SE 13.0 mph 13.0 mph 51 % 0.0 in 0.0 W/m2 CLR
22:14 28.4 °F 17.3 °F 1015.5 in ESE 3.7 mph 3.7 mph 51 % 0.0 in 0.0 W/m2 CLR
22:19 28.3 °F 17.5 °F 1015.5 in Calm     52 % 0.0 in 0.0 W/m2 CLR
22:24 28.1 °F 17.3 °F 1015.5 in ESE 3.7 mph 3.7 mph 52 % 0.0 in 0.0 W/m2 CLR
22:29 27.9 °F 17.4 °F 1015.5 in Calm     53 % 0.0 in 0.0 W/m2 CLR
22:34 27.8 °F 17.3 °F 1015.5 in Calm     53 % 0.0 in 0.0 W/m2 CLR
22:39 27.7 °F 17.2 °F 1015.5 in Calm     53 % 0.0 in 0.0 W/m2 CLR
22:44 27.5 °F 17.1 °F 1015.5 in Calm     53 % 0.0 in 0.0 W/m2 CLR
22:49 27.4 °F 17.3 °F 1015.8 in Calm     54 % 0.0 in 0.0 W/m2 CLR
22:54 27.2 °F 17.1 °F 1015.8 in Calm     54 % 0.0 in 0.0 W/m2 CLR
22:59 27.1 °F 17.6 °F 1015.5 in Calm     56 % 0.0 in 0.0 W/m2 CLR
23:04 27.0 °F 17.5 °F 1015.8 in Calm     56 % 0.0 in 0.0 W/m2 CLR
23:09 26.8 °F 17.6 °F 1015.8 in Calm     57 % 0.0 in 0.0 W/m2 CLR
23:14 26.6 °F 17.4 °F 1015.8 in Calm     57 % 0.0 in 0.0 W/m2 CLR
23:19 26.4 °F 17.8 °F 1015.8 in Calm     59 % 0.0 in 0.0 W/m2 CLR
23:24 26.3 °F 17.9 °F 1015.8 in Calm     60 % 0.0 in 0.0 W/m2 CLR
23:29 26.1 °F 17.7 °F 1015.8 in Calm     60 % 0.0 in 0.0 W/m2 CLR
23:34 26.0 °F 17.9 °F 1015.8 in Calm     61 % 0.0 in 0.0 W/m2 CLR
23:39 25.8 °F 17.7 °F 1015.8 in Calm     61 % 0.0 in 0.0 W/m2 CLR
23:44 25.7 °F 17.8 °F 1015.8 in Calm     62 % 0.0 in 0.0 W/m2 CLR
23:49 25.6 °F 18.1 °F 1015.8 in Calm     63 % 0.0 in 0.0 W/m2 CLR
23:54 25.6 °F 18.0 °F 1015.8 in Calm     63 % 0.0 in 0.0 W/m2 CLR
23:59 25.5 °F 17.9 °F 1015.8 in Calm     63 % 0.0 in 0.0 W/m2 CLR
Lo Temps de Massalio
Compliments of Weather Underground - 1.25 mb